sensor_id;sensor_type;location;lat;lon;timestamp;P1;durP1;ratioP1;P2;durP2;ratioP2
4595;SDS011;2310;49.978;8.742;2022-11-02T13:57:57;7.47;;;2.33;;
4595;SDS011;2310;49.978;8.742;2022-11-02T14:02:00;5.53;;;2.20;;
4595;SDS011;2310;49.978;8.742;2022-11-02T14:06:08;9.13;;;2.83;;
4595;SDS011;2310;49.978;8.742;2022-11-02T14:14:22;4.87;;;1.73;;
4595;SDS011;2310;49.978;8.742;2022-11-02T14:18:25;6.93;;;2.87;;
4595;SDS011;2310;49.978;8.742;2022-11-02T14:22:29;7.80;;;2.33;;
4595;SDS011;2310;49.978;8.742;2022-11-02T14:26:31;9.50;;;2.10;;
4595;SDS011;2310;49.978;8.742;2022-11-02T14:30:39;5.57;;;1.90;;
4595;SDS011;2310;49.978;8.742;2022-11-02T14:34:47;8.13;;;2.43;;
4595;SDS011;2310;49.978;8.742;2022-11-02T14:43:42;7.20;;;1.90;;
4595;SDS011;2310;49.978;8.742;2022-11-02T14:48:02;9.17;;;2.67;;
4595;SDS011;2310;49.978;8.742;2022-11-02T15:00:58;7.47;;;2.00;;
4595;SDS011;2310;49.978;8.742;2022-11-02T15:05:03;9.60;;;2.83;;
4595;SDS011;2310;49.978;8.742;2022-11-02T15:09:09;7.57;;;2.77;;
4595;SDS011;2310;49.978;8.742;2022-11-02T15:21:30;11.80;;;2.30;;
4595;SDS011;2310;49.978;8.742;2022-11-02T15:25:34;8.03;;;2.50;;
4595;SDS011;2310;49.978;8.742;2022-11-02T15:29:42;20.47;;;16.90;;
4595;SDS011;2310;49.978;8.742;2022-11-02T15:33:44;4.90;;;2.53;;
4595;SDS011;2310;49.978;8.742;2022-11-02T15:37:49;7.67;;;2.70;;
4595;SDS011;2310;49.978;8.742;2022-11-02T15:42:01;7.87;;;2.37;;
4595;SDS011;2310;49.978;8.742;2022-11-02T15:46:12;5.00;;;2.47;;
4595;SDS011;2310;49.978;8.742;2022-11-02T15:55:44;6.40;;;2.80;;
4595;SDS011;2310;49.978;8.742;2022-11-02T16:03:23;6.73;;;2.80;;
4595;SDS011;2310;49.978;8.742;2022-11-02T16:07:25;7.40;;;3.37;;
4595;SDS011;2310;49.978;8.742;2022-11-02T16:11:30;7.87;;;3.17;;
4595;SDS011;2310;49.978;8.742;2022-11-02T16:15:31;9.63;;;3.20;;
4595;SDS011;2310;49.978;8.742;2022-11-02T16:19:33;13.03;;;3.90;;
4595;SDS011;2310;49.978;8.742;2022-11-02T16:23:35;8.63;;;2.80;;
4595;SDS011;2310;49.978;8.742;2022-11-02T16:27:39;7.87;;;2.60;;
4595;SDS011;2310;49.978;8.742;2022-11-02T16:31:42;12.63;;;3.30;;
4595;SDS011;2310;49.978;8.742;2022-11-02T16:35:45;8.33;;;3.67;;
4595;SDS011;2310;49.978;8.742;2022-11-02T16:39:46;9.77;;;3.60;;
4595;SDS011;2310;49.978;8.742;2022-11-02T16:43:47;10.80;;;3.47;;
4595;SDS011;2310;49.978;8.742;2022-11-02T16:47:50;8.00;;;2.83;;
4595;SDS011;2310;49.978;8.742;2022-11-02T16:51:56;7.90;;;3.17;;
4595;SDS011;2310;49.978;8.742;2022-11-02T16:56:12;7.87;;;2.73;;
4595;SDS011;2310;49.978;8.742;2022-11-02T17:00:16;10.40;;;3.60;;
4595;SDS011;2310;49.978;8.742;2022-11-02T17:04:21;6.23;;;3.07;;
4595;SDS011;2310;49.978;8.742;2022-11-02T17:08:28;8.77;;;4.30;;
4595;SDS011;2310;49.978;8.742;2022-11-02T17:12:33;9.47;;;3.40;;
4595;SDS011;2310;49.978;8.742;2022-11-02T17:16:48;9.50;;;3.53;;
4595;SDS011;2310;49.978;8.742;2022-11-02T17:20:42;12.97;;;8.20;;
4595;SDS011;2310;49.978;8.742;2022-11-02T17:24:44;8.50;;;3.07;;
4595;SDS011;2310;49.978;8.742;2022-11-02T17:28:47;6.13;;;3.40;;
4595;SDS011;2310;49.978;8.742;2022-11-02T17:32:51;6.03;;;4.00;;
4595;SDS011;2310;49.978;8.742;2022-11-02T17:36:52;8.70;;;3.53;;
4595;SDS011;2310;49.978;8.742;2022-11-02T17:40:54;7.10;;;3.90;;
4595;SDS011;2310;49.978;8.742;2022-11-02T17:44:55;9.17;;;6.90;;
4595;SDS011;2310;49.978;8.742;2022-11-02T17:48:57;10.80;;;8.60;;
4595;SDS011;2310;49.978;8.742;2022-11-02T17:52:58;14.90;;;11.27;;
4595;SDS011;2310;49.978;8.742;2022-11-02T17:57:04;13.87;;;10.43;;
4595;SDS011;2310;49.978;8.742;2022-11-02T18:01:08;14.73;;;10.30;;
4595;SDS011;2310;49.978;8.742;2022-11-02T18:09:27;12.63;;;8.73;;
4595;SDS011;2310;49.978;8.742;2022-11-02T18:13:29;10.27;;;8.17;;
4595;SDS011;2310;49.978;8.742;2022-11-02T18:17:30;13.03;;;8.47;;
4595;SDS011;2310;49.978;8.742;2022-11-02T18:21:33;14.53;;;9.30;;
4595;SDS011;2310;49.978;8.742;2022-11-02T18:25:34;13.07;;;6.20;;
4595;SDS011;2310;49.978;8.742;2022-11-02T18:29:36;8.17;;;4.07;;
4595;SDS011;2310;49.978;8.742;2022-11-02T18:33:37;12.50;;;3.83;;
4595;SDS011;2310;49.978;8.742;2022-11-02T18:37:39;6.30;;;3.63;;
4595;SDS011;2310;49.978;8.742;2022-11-02T18:41:40;9.13;;;3.93;;
4595;SDS011;2310;49.978;8.742;2022-11-02T18:45:42;7.47;;;3.90;;
4595;SDS011;2310;49.978;8.742;2022-11-02T18:49:43;8.87;;;3.87;;
4595;SDS011;2310;49.978;8.742;2022-11-02T18:53:50;10.57;;;4.50;;
4595;SDS011;2310;49.978;8.742;2022-11-02T18:57:56;10.73;;;3.87;;
4595;SDS011;2310;49.978;8.742;2022-11-02T19:01:57;9.40;;;4.07;;
4595;SDS011;2310;49.978;8.742;2022-11-02T19:05:59;6.57;;;3.40;;
4595;SDS011;2310;49.978;8.742;2022-11-02T19:10:19;7.87;;;5.40;;
4595;SDS011;2310;49.978;8.742;2022-11-02T19:14:21;8.50;;;6.73;;
4595;SDS011;2310;49.978;8.742;2022-11-02T19:18:23;10.00;;;7.80;;
4595;SDS011;2310;49.978;8.742;2022-11-02T19:22:24;13.23;;;11.63;;
4595;SDS011;2310;49.978;8.742;2022-11-02T19:26:34;15.23;;;11.90;;
4595;SDS011;2310;49.978;8.742;2022-11-02T19:30:36;16.80;;;11.20;;
4595;SDS011;2310;49.978;8.742;2022-11-02T19:34:37;15.60;;;12.43;;
4595;SDS011;2310;49.978;8.742;2022-11-02T19:38:38;18.20;;;12.00;;
4595;SDS011;2310;49.978;8.742;2022-11-02T19:42:40;19.37;;;14.20;;
4595;SDS011;2310;49.978;8.742;2022-11-02T19:46:41;19.43;;;7.67;;
4595;SDS011;2310;49.978;8.742;2022-11-02T19:50:43;11.67;;;5.10;;
4595;SDS011;2310;49.978;8.742;2022-11-02T19:54:44;11.50;;;4.43;;
4595;SDS011;2310;49.978;8.742;2022-11-02T19:58:47;8.33;;;5.00;;
4595;SDS011;2310;49.978;8.742;2022-11-02T20:02:50;13.03;;;6.00;;
4595;SDS011;2310;49.978;8.742;2022-11-02T20:06:51;7.17;;;4.60;;
4595;SDS011;2310;49.978;8.742;2022-11-02T20:10:53;8.37;;;5.40;;
4595;SDS011;2310;49.978;8.742;2022-11-02T20:15:03;5.73;;;3.93;;
4595;SDS011;2310;49.978;8.742;2022-11-02T20:19:07;7.03;;;4.53;;
4595;SDS011;2310;49.978;8.742;2022-11-02T20:23:09;10.30;;;5.87;;
4595;SDS011;2310;49.978;8.742;2022-11-02T20:27:10;11.20;;;7.03;;
4595;SDS011;2310;49.978;8.742;2022-11-02T20:31:19;9.83;;;5.80;;
4595;SDS011;2310;49.978;8.742;2022-11-02T20:35:19;9.97;;;5.40;;
4595;SDS011;2310;49.978;8.742;2022-11-02T20:39:22;10.03;;;5.80;;
4595;SDS011;2310;49.978;8.742;2022-11-02T20:43:24;8.40;;;5.20;;
4595;SDS011;2310;49.978;8.742;2022-11-02T20:47:25;11.10;;;5.20;;
4595;SDS011;2310;49.978;8.742;2022-11-02T20:51:27;11.03;;;5.23;;
4595;SDS011;2310;49.978;8.742;2022-11-02T20:55:29;9.33;;;5.50;;
4595;SDS011;2310;49.978;8.742;2022-11-02T20:59:30;11.70;;;6.40;;
4595;SDS011;2310;49.978;8.742;2022-11-02T21:03:35;9.70;;;6.40;;
4595;SDS011;2310;49.978;8.742;2022-11-02T21:07:37;12.93;;;8.60;;
4595;SDS011;2310;49.978;8.742;2022-11-02T21:11:39;14.13;;;7.00;;
4595;SDS011;2310;49.978;8.742;2022-11-02T21:16:04;15.17;;;8.03;;
4595;SDS011;2310;49.978;8.742;2022-11-02T21:20:07;9.70;;;6.50;;
4595;SDS011;2310;49.978;8.742;2022-11-02T21:24:11;11.17;;;6.17;;
4595;SDS011;2310;49.978;8.742;2022-11-02T21:28:12;11.20;;;6.10;;
4595;SDS011;2310;49.978;8.742;2022-11-02T21:32:13;15.83;;;6.57;;
4595;SDS011;2310;49.978;8.742;2022-11-02T21:36:15;11.43;;;5.80;;
4595;SDS011;2310;49.978;8.742;2022-11-02T21:40:17;11.93;;;6.90;;
4595;SDS011;2310;49.978;8.742;2022-11-02T21:44:18;7.83;;;5.20;;
4595;SDS011;2310;49.978;8.742;2022-11-02T21:48:20;10.43;;;5.20;;
4595;SDS011;2310;49.978;8.742;2022-11-02T21:52:22;7.77;;;5.43;;
4595;SDS011;2310;49.978;8.742;2022-11-02T21:56:25;10.80;;;5.40;;
4595;SDS011;2310;49.978;8.742;2022-11-02T22:00:27;9.27;;;5.90;;
4595;SDS011;2310;49.978;8.742;2022-11-02T22:04:30;9.43;;;6.20;;
4595;SDS011;2310;49.978;8.742;2022-11-02T22:08:32;12.80;;;5.40;;
4595;SDS011;2310;49.978;8.742;2022-11-02T22:12:39;8.93;;;5.33;;
4595;SDS011;2310;49.978;8.742;2022-11-02T22:17:03;16.60;;;7.23;;
4595;SDS011;2310;49.978;8.742;2022-11-02T22:21:07;13.57;;;8.03;;
4595;SDS011;2310;49.978;8.742;2022-11-02T22:25:09;11.50;;;6.03;;
4595;SDS011;2310;49.978;8.742;2022-11-02T22:29:12;10.43;;;7.10;;
4595;SDS011;2310;49.978;8.742;2022-11-02T22:33:13;15.27;;;7.70;;
4595;SDS011;2310;49.978;8.742;2022-11-02T22:37:15;9.30;;;6.60;;
4595;SDS011;2310;49.978;8.742;2022-11-02T22:41:36;11.20;;;7.90;;
4595;SDS011;2310;49.978;8.742;2022-11-02T22:45:42;10.17;;;7.20;;
4595;SDS011;2310;49.978;8.742;2022-11-02T22:49:44;9.23;;;6.37;;
4595;SDS011;2310;49.978;8.742;2022-11-02T22:53:46;11.43;;;7.03;;
4595;SDS011;2310;49.978;8.742;2022-11-02T22:57:51;11.13;;;6.90;;
4595;SDS011;2310;49.978;8.742;2022-11-02T23:01:55;10.50;;;6.57;;
4595;SDS011;2310;49.978;8.742;2022-11-02T23:05:57;13.60;;;6.67;;
4595;SDS011;2310;49.978;8.742;2022-11-02T23:10:01;11.03;;;6.93;;
4595;SDS011;2310;49.978;8.742;2022-11-02T23:14:05;11.23;;;6.00;;
4595;SDS011;2310;49.978;8.742;2022-11-02T23:18:11;11.90;;;4.33;;
4595;SDS011;2310;49.978;8.742;2022-11-02T23:22:12;10.40;;;4.90;;
4595;SDS011;2310;49.978;8.742;2022-11-02T23:26:34;7.77;;;4.83;;
4595;SDS011;2310;49.978;8.742;2022-11-02T23:30:37;10.00;;;5.23;;
4595;SDS011;2310;49.978;8.742;2022-11-02T23:34:58;12.73;;;5.60;;
4595;SDS011;2310;49.978;8.742;2022-11-02T23:39:18;14.00;;;6.23;;
4595;SDS011;2310;49.978;8.742;2022-11-02T23:43:38;8.70;;;5.93;;
4595;SDS011;2310;49.978;8.742;2022-11-02T23:47:40;12.40;;;5.50;;
4595;SDS011;2310;49.978;8.742;2022-11-02T23:51:59;10.60;;;5.90;;
4595;SDS011;2310;49.978;8.742;2022-11-02T23:56:19;8.90;;;5.33;;
